createdAt,value
2023-01-17T00:02:16.013Z,11.77
2023-01-17T00:05:01.278Z,10.65
2023-01-17T00:07:49.470Z,11.75
2023-01-17T00:10:18.233Z,12.88
2023-01-17T00:12:59.087Z,12.25
2023-01-17T00:15:27.288Z,12.27
2023-01-17T00:17:54.576Z,12.77
2023-01-17T00:20:43.148Z,13.05
2023-01-17T00:23:37.908Z,11.15
2023-01-17T00:26:09.808Z,12.27
2023-01-17T00:28:38.837Z,11.80
2023-01-17T00:31:07.735Z,12.20
2023-01-17T00:33:34.757Z,12.88
2023-01-17T00:36:02.971Z,14.20
2023-01-17T00:38:32.208Z,13.10
2023-01-17T00:41:07.619Z,14.55
2023-01-17T00:43:53.597Z,14.05
2023-01-17T00:46:39.343Z,13.10
2023-01-17T00:49:25.024Z,13.80
2023-01-17T00:52:10.883Z,13.52
2023-01-17T00:54:56.144Z,14.05
2023-01-17T00:57:42.076Z,13.80
2023-01-17T01:00:27.804Z,14.65
2023-01-17T01:03:13.036Z,14.57
2023-01-17T01:05:58.158Z,14.05
2023-01-17T01:08:47.127Z,12.88
2023-01-17T01:11:40.257Z,14.07
2023-01-17T01:14:28.207Z,13.68
2023-01-17T01:17:13.594Z,12.55
2023-01-17T01:19:58.897Z,12.77
2023-01-17T01:22:44.452Z,12.70
2023-01-17T01:25:29.744Z,11.93
2023-01-17T01:28:26.158Z,13.05
2023-01-17T01:31:11.866Z,13.18
2023-01-17T01:33:38.618Z,13.05
2023-01-17T01:36:07.986Z,13.18
2023-01-17T01:38:34.916Z,12.73
2023-01-17T01:41:01.661Z,13.27
2023-01-17T01:43:49.602Z,12.02
2023-01-17T01:46:39.762Z,12.70
2023-01-17T01:49:12.893Z,13.43
2023-01-17T01:51:44.489Z,12.77
2023-01-17T01:54:24.193Z,12.65
2023-01-17T01:56:54.611Z,11.48
2023-01-17T01:59:23.499Z,13.63
2023-01-17T02:01:53.293Z,13.27
2023-01-17T02:04:22.470Z,12.77
2023-01-17T02:06:59.198Z,12.45
2023-01-17T02:09:27.175Z,12.45
2023-01-17T02:11:54.589Z,12.80
2023-01-17T02:14:22.826Z,13.25
2023-01-17T02:17:04.858Z,11.63
2023-01-17T02:22:53.988Z,11.75
2023-01-17T02:25:23.573Z,13.45
2023-01-17T02:27:56.179Z,11.90
2023-01-17T02:30:45.569Z,12.15
2023-01-17T02:33:31.382Z,11.63
2023-01-17T02:36:17.888Z,12.45
2023-01-17T02:39:02.591Z,11.98
2023-01-17T02:41:45.734Z,11.73
2023-01-17T02:44:18.266Z,12.52
2023-01-17T02:46:47.071Z,12.27
2023-01-17T02:49:16.146Z,11.32
2023-01-17T02:51:48.473Z,11.52
2023-01-17T02:54:38.394Z,12.15
2023-01-17T02:57:05.078Z,10.68
2023-01-17T02:59:40.850Z,11.02
2023-01-17T03:02:17.753Z,10.77
2023-01-17T03:05:29.581Z,10.93
2023-01-17T03:07:57.732Z,11.15
2023-01-17T03:10:25.083Z,11.02
2023-01-17T03:12:57.754Z,11.07
2023-01-17T03:15:24.539Z,10.48
2023-01-17T03:17:55.369Z,9.82
2023-01-17T03:20:22.740Z,10.47
2023-01-17T03:22:49.651Z,11.63
2023-01-17T03:25:16.808Z,11.18
2023-01-17T03:27:43.593Z,10.35
2023-01-17T03:30:11.067Z,11.43
2023-01-17T03:32:37.898Z,10.40
2023-01-17T03:35:05.026Z,10.30
2023-01-17T03:37:32.020Z,10.25
2023-01-17T03:39:58.744Z,10.75
2023-01-17T03:42:25.453Z,10.00
2023-01-17T03:44:52.189Z,9.68
2023-01-17T03:47:18.921Z,10.82
2023-01-17T03:49:45.677Z,10.23
2023-01-17T03:52:12.417Z,10.70
2023-01-17T03:54:39.264Z,9.88
2023-01-17T03:57:06.271Z,10.20
2023-01-17T03:59:34.066Z,10.63
2023-01-17T04:02:01.347Z,10.95
2023-01-17T04:04:28.208Z,9.95
2023-01-17T04:06:54.942Z,10.82
2023-01-17T04:09:21.678Z,10.45
2023-01-17T04:11:50.887Z,11.07
2023-01-17T04:14:17.780Z,10.93
2023-01-17T04:16:44.720Z,11.60
2023-01-17T04:19:13.494Z,11.20
2023-01-17T04:21:40.274Z,10.80
2023-01-17T04:24:07.340Z,9.95
2023-01-17T04:26:34.126Z,10.52
2023-01-17T04:29:00.917Z,11.23
2023-01-17T04:31:27.759Z,11.52
2023-01-17T04:33:54.518Z,10.65
2023-01-17T04:36:21.355Z,12.40
2023-01-17T04:38:48.066Z,12.15
2023-01-17T04:41:14.865Z,11.23
2023-01-17T04:43:41.590Z,11.57
2023-01-17T04:46:10.165Z,12.85
2023-01-17T04:48:37.042Z,11.30
2023-01-17T04:51:05.262Z,11.02
2023-01-17T04:53:32.466Z,11.73
2023-01-17T04:55:59.342Z,11.45
2023-01-17T04:58:26.592Z,10.70
2023-01-17T05:00:53.491Z,10.77
2023-01-17T05:03:22.506Z,11.02
2023-01-17T05:05:49.470Z,11.18
2023-01-17T05:08:16.282Z,11.82
2023-01-17T05:10:46.061Z,11.73
2023-01-17T05:13:13.351Z,11.63
2023-01-17T05:15:40.306Z,10.85
2023-01-17T05:18:08.769Z,12.95
2023-01-17T05:20:36.689Z,12.20
2023-01-17T05:23:03.529Z,11.75
2023-01-17T05:25:32.399Z,11.82
2023-01-17T05:28:02.586Z,11.27
2023-01-17T05:30:31.853Z,12.10
2023-01-17T05:32:59.397Z,11.55
2023-01-17T05:35:29.338Z,11.98
2023-01-17T05:37:56.590Z,8.82
2023-01-17T05:40:26.016Z,12.60
2023-01-17T05:42:54.893Z,11.75
2023-01-17T05:45:23.357Z,11.93
2023-01-17T05:47:53.045Z,11.50
2023-01-17T05:50:23.349Z,11.70
2023-01-17T05:53:17.363Z,11.75
2023-01-17T05:55:44.874Z,12.70
2023-01-17T05:58:18.088Z,12.50
2023-01-17T06:00:45.599Z,11.52
2023-01-17T06:03:12.832Z,12.18
2023-01-17T06:05:39.690Z,12.55
2023-01-17T06:08:06.782Z,12.18
2023-01-17T06:10:33.907Z,11.65
2023-01-17T06:13:06.238Z,11.77
2023-01-17T06:15:35.512Z,12.20
2023-01-17T06:18:13.680Z,12.77
2023-01-17T06:20:40.641Z,12.65
2023-01-17T06:23:10.735Z,12.27
2023-01-17T06:25:43.673Z,12.60
2023-01-17T06:28:12.079Z,12.25
2023-01-17T06:30:39.125Z,12.23
2023-01-17T06:33:06.468Z,11.60
2023-01-17T06:35:33.610Z,12.05
2023-01-17T06:38:00.677Z,11.75
2023-01-17T06:40:29.363Z,13.02
2023-01-17T06:43:04.133Z,11.15
2023-01-17T06:45:32.215Z,12.35
2023-01-17T06:48:01.090Z,12.25
2023-01-17T06:50:27.930Z,12.25
2023-01-17T06:53:05.742Z,11.85
2023-01-17T06:55:34.028Z,12.57
2023-01-17T06:58:02.701Z,13.27
2023-01-17T07:00:31.409Z,13.13
2023-01-17T07:02:58.387Z,12.38
2023-01-17T07:05:25.416Z,11.60
2023-01-17T07:07:53.169Z,13.45
2023-01-17T07:10:20.125Z,13.75
2023-01-17T07:12:46.898Z,12.07
2023-01-17T07:15:13.790Z,12.88
2023-01-17T07:17:40.515Z,12.43
2023-01-17T07:20:08.055Z,13.63
2023-01-17T07:22:35.427Z,12.98
2023-01-17T07:25:02.259Z,12.32
2023-01-17T07:27:31.160Z,12.48
2023-01-17T07:29:58.200Z,13.27
2023-01-17T07:32:26.686Z,12.75
2023-01-17T07:34:54.484Z,12.75
2023-01-17T07:37:21.327Z,12.65
2023-01-17T07:39:48.088Z,12.68
2023-01-17T07:42:15.218Z,13.00
2023-01-17T07:44:44.087Z,13.50
2023-01-17T07:47:11.417Z,14.00
2023-01-17T07:49:38.433Z,14.10
2023-01-17T07:52:08.750Z,14.13
2023-01-17T07:54:35.803Z,14.70
2023-01-17T07:57:03.172Z,14.13
2023-01-17T07:59:29.987Z,14.98
2023-01-17T08:01:56.831Z,14.27
2023-01-17T08:04:26.345Z,14.85
2023-01-17T08:06:55.006Z,14.10
2023-01-17T08:09:22.103Z,14.30
2023-01-17T08:11:49.114Z,13.95
2023-01-17T08:14:16.030Z,15.15
2023-01-17T08:16:42.899Z,15.63
2023-01-17T08:19:10.460Z,14.30
2023-01-17T08:21:37.378Z,15.95
2023-01-17T08:24:04.527Z,14.45
2023-01-17T08:26:31.283Z,15.15
2023-01-17T08:29:02.511Z,15.10
2023-01-17T08:31:32.194Z,14.27
2023-01-17T08:33:59.487Z,15.80
2023-01-17T08:36:27.733Z,14.27
2023-01-17T08:38:55.569Z,15.13
2023-01-17T08:41:24.317Z,16.35
2023-01-17T08:43:52.226Z,15.60
2023-01-17T08:46:19.448Z,16.15
2023-01-17T08:48:46.591Z,14.48
2023-01-17T08:51:13.851Z,16.90
2023-01-17T08:53:40.833Z,14.50
2023-01-17T08:56:07.799Z,15.38
2023-01-17T08:58:35.895Z,16.15
2023-01-17T09:01:05.189Z,15.95
2023-01-17T09:03:33.033Z,14.85
2023-01-17T09:06:04.911Z,14.70
2023-01-17T09:10:58.919Z,12.10
2023-01-17T09:13:25.623Z,13.95
2023-01-17T09:15:57.049Z,14.15
2023-01-17T09:18:25.582Z,14.82
2023-01-17T09:20:57.790Z,15.45
2023-01-17T09:23:25.998Z,16.50
2023-01-17T09:25:57.195Z,14.88
2023-01-17T09:28:25.426Z,14.95
2023-01-17T09:30:53.589Z,15.85
2023-01-17T09:33:23.207Z,14.35
2023-01-17T09:35:50.160Z,13.80
2023-01-17T09:38:17.105Z,14.50
2023-01-17T09:40:48.824Z,14.82
2023-01-17T09:43:26.687Z,13.77
2023-01-17T09:45:53.551Z,13.40
2023-01-17T09:48:33.845Z,13.85
2023-01-17T09:51:14.661Z,14.25
2023-01-17T09:53:43.996Z,14.73
2023-01-17T09:56:17.129Z,15.23
2023-01-17T09:59:11.855Z,14.82
2023-01-17T10:02:12.005Z,14.95
2023-01-17T10:04:44.782Z,14.40
2023-01-17T10:07:42.304Z,14.38
2023-01-17T10:10:42.043Z,16.70
2023-01-17T10:13:27.784Z,16.15
2023-01-17T10:16:24.714Z,15.85
2023-01-17T10:19:14.094Z,16.33
2023-01-17T10:22:10.215Z,15.38
2023-01-17T10:24:52.141Z,15.00
2023-01-17T10:27:25.162Z,14.85
2023-01-17T10:29:52.552Z,16.40
2023-01-17T10:32:22.461Z,16.70
2023-01-17T10:34:52.135Z,16.15
2023-01-17T10:37:37.091Z,16.90
2023-01-17T10:40:18.694Z,17.70
2023-01-17T10:43:01.579Z,17.90
2023-01-17T10:45:29.821Z,17.65
2023-01-17T10:48:15.556Z,17.02
2023-01-17T10:50:58.489Z,17.10
2023-01-17T10:53:39.841Z,16.98
2023-01-17T10:56:07.605Z,17.50
2023-01-17T10:58:34.401Z,17.55
2023-01-17T11:01:07.103Z,17.70
2023-01-17T11:03:34.809Z,16.98
2023-01-17T11:06:27.128Z,18.25
2023-01-17T11:08:53.983Z,18.13
2023-01-17T11:11:24.738Z,18.85
2023-01-17T11:13:54.946Z,17.10
2023-01-17T11:16:26.714Z,17.48
2023-01-17T11:19:16.239Z,18.58
2023-01-17T11:21:54.898Z,16.60
2023-01-17T11:24:39.096Z,17.17
2023-01-17T11:27:08.010Z,16.15
2023-01-17T11:29:39.983Z,16.63
2023-01-17T11:32:29.033Z,16.90
2023-01-17T11:35:20.083Z,17.23
2023-01-17T11:37:51.131Z,17.65
2023-01-17T11:40:25.042Z,16.10
2023-01-17T11:43:06.272Z,16.42
2023-01-17T11:45:35.032Z,17.05
2023-01-17T11:48:07.864Z,16.38
2023-01-17T11:50:37.740Z,16.50
2023-01-17T11:53:22.738Z,16.80
2023-01-17T11:56:05.313Z,16.70
2023-01-17T11:58:35.806Z,17.30
2023-01-17T12:01:20.727Z,17.95
2023-01-17T12:04:10.694Z,16.88
2023-01-17T12:06:57.806Z,17.00
2023-01-17T12:09:47.914Z,16.50
2023-01-17T12:12:57.840Z,16.48
2023-01-17T12:15:33.825Z,16.30
2023-01-17T12:18:15.237Z,16.88
2023-01-17T12:21:06.675Z,14.98
2023-01-17T12:23:55.906Z,15.50
2023-01-17T12:26:31.863Z,14.45
2023-01-17T12:29:09.504Z,14.70
2023-01-17T12:31:47.342Z,14.45
2023-01-17T12:34:58.742Z,15.13
2023-01-17T12:37:39.031Z,15.05
2023-01-17T12:40:24.858Z,13.80
2023-01-17T12:43:07.858Z,13.65
2023-01-17T12:45:46.036Z,12.65
2023-01-17T12:48:20.646Z,13.48
2023-01-17T12:50:50.485Z,13.50
2023-01-17T12:53:40.569Z,12.75
2023-01-17T12:56:19.493Z,14.43
2023-01-17T12:58:52.344Z,14.23
2023-01-17T13:01:28.522Z,13.40
2023-01-17T13:04:11.614Z,13.45
2023-01-17T13:06:44.553Z,12.38
2023-01-17T13:09:17.031Z,12.43
2023-01-17T13:11:54.519Z,13.52
2023-01-17T13:14:21.308Z,12.65
2023-01-17T13:17:00.703Z,12.02
2023-01-17T13:19:36.597Z,12.55
2023-01-17T13:22:07.410Z,10.80
2023-01-17T13:24:49.277Z,11.98
2023-01-17T13:27:26.456Z,11.85
2023-01-17T13:30:22.094Z,12.02
2023-01-17T13:33:20.607Z,12.68
2023-01-17T13:36:29.989Z,11.35
2023-01-17T13:39:34.683Z,10.95
2023-01-17T13:42:23.187Z,11.80
2023-01-17T13:44:51.299Z,11.05
2023-01-17T13:47:18.067Z,10.90
2023-01-17T13:49:48.518Z,11.73
2023-01-17T13:52:21.312Z,11.13
2023-01-17T13:54:50.898Z,11.75
2023-01-17T13:57:23.680Z,10.75
2023-01-17T13:59:50.471Z,11.40
2023-01-17T14:02:32.296Z,11.77
2023-01-17T14:05:23.454Z,11.73
2023-01-17T14:07:59.261Z,10.77
2023-01-17T14:10:47.049Z,12.45
2023-01-17T14:13:34.908Z,11.85
2023-01-17T14:16:03.514Z,12.15
2023-01-17T14:18:36.792Z,11.05
2023-01-17T14:21:24.230Z,10.00
2023-01-17T14:24:20.486Z,10.98
2023-01-17T14:27:16.741Z,11.38
2023-01-17T14:29:49.547Z,11.60
2023-01-17T14:32:21.088Z,10.63
2023-01-17T14:34:50.498Z,12.20
2023-01-17T14:37:27.282Z,12.13
2023-01-17T14:39:54.055Z,11.75
2023-01-17T14:42:23.754Z,11.65
2023-01-17T14:45:05.529Z,13.25
2023-01-17T14:47:36.200Z,11.82
2023-01-17T14:50:10.423Z,11.82
2023-01-17T14:52:37.207Z,12.85
2023-01-17T14:55:15.444Z,12.30
2023-01-17T14:57:42.923Z,12.98
2023-01-17T15:00:20.254Z,12.95
2023-01-17T15:02:49.140Z,11.73
2023-01-17T15:05:18.918Z,11.50
2023-01-17T15:07:50.696Z,10.90
2023-01-17T15:10:21.274Z,11.60
2023-01-17T15:12:48.236Z,12.45
2023-01-17T15:15:35.447Z,11.93
2023-01-17T15:18:18.141Z,11.40
2023-01-17T15:20:57.246Z,11.93
2023-01-17T15:23:30.608Z,12.10
2023-01-17T15:25:58.176Z,11.30
2023-01-17T15:28:25.403Z,11.73
2023-01-17T15:31:09.226Z,10.05
2023-01-17T15:33:39.287Z,11.82
2023-01-17T15:36:09.665Z,11.43
2023-01-17T15:38:39.544Z,11.02
2023-01-17T15:41:13.623Z,12.27
2023-01-17T15:43:41.795Z,12.25
2023-01-17T15:46:22.996Z,12.18
2023-01-17T15:48:51.792Z,11.73
2023-01-17T15:51:46.076Z,11.70
2023-01-17T15:54:34.365Z,11.43
2023-01-17T15:57:37.539Z,11.25
2023-01-17T16:00:20.305Z,9.82
2023-01-17T16:02:58.890Z,10.93
2023-01-17T16:05:27.680Z,11.70
2023-01-17T16:08:04.375Z,11.35
2023-01-17T16:10:35.673Z,10.02
2023-01-17T16:13:04.299Z,10.82
2023-01-17T16:15:31.519Z,11.15
2023-01-17T16:18:01.390Z,11.82
2023-01-17T16:20:36.737Z,11.70
2023-01-17T16:23:03.820Z,10.77
2023-01-17T16:25:32.701Z,10.82
2023-01-17T16:28:00.193Z,11.15
2023-01-17T16:30:27.518Z,11.60
2023-01-17T16:32:56.517Z,11.80
2023-01-17T16:35:30.152Z,11.18
2023-01-17T16:37:59.389Z,12.45
2023-01-17T16:40:29.400Z,11.82
2023-01-17T16:42:57.302Z,13.23
2023-01-17T16:45:24.943Z,13.38
2023-01-17T16:47:53.649Z,13.75
2023-01-17T16:50:23.242Z,14.02
2023-01-17T16:52:54.862Z,14.98
2023-01-17T16:55:25.260Z,14.93
2023-01-17T16:57:56.171Z,15.02
2023-01-17T17:00:23.283Z,14.73
2023-01-17T17:02:51.312Z,16.38
2023-01-17T17:05:18.796Z,14.80
2023-01-17T17:07:50.751Z,16.67
2023-01-17T17:10:21.232Z,15.02
2023-01-17T17:12:48.141Z,15.45
2023-01-17T17:15:14.896Z,12.00
2023-01-17T17:17:43.394Z,15.70
2023-01-17T17:20:13.035Z,15.50
2023-01-17T17:22:42.586Z,15.93
2023-01-17T17:25:10.410Z,16.25
2023-01-17T17:27:37.442Z,16.25
2023-01-17T17:30:05.097Z,15.63
2023-01-17T17:32:32.671Z,16.08
2023-01-17T17:35:00.335Z,15.68
2023-01-17T17:37:34.060Z,16.50
2023-01-17T17:40:01.288Z,15.05
2023-01-17T17:42:28.504Z,15.73
2023-01-17T17:44:55.879Z,15.57
2023-01-17T17:47:24.287Z,15.32
2023-01-17T17:49:51.483Z,16.27
2023-01-17T17:52:18.667Z,14.63
2023-01-17T17:54:45.971Z,16.50
2023-01-17T17:57:12.831Z,14.80
2023-01-17T17:59:39.579Z,16.42
2023-01-17T18:02:10.995Z,16.30
2023-01-17T18:04:38.193Z,14.60
2023-01-17T18:07:05.153Z,16.10
2023-01-17T18:09:31.967Z,14.50
2023-01-17T18:11:58.872Z,15.52
2023-01-17T18:14:25.794Z,17.15
2023-01-17T18:16:52.668Z,17.00
2023-01-17T18:19:26.492Z,17.52
2023-01-17T18:21:53.999Z,15.50
2023-01-17T18:24:23.166Z,16.75
2023-01-17T18:26:56.072Z,17.30
2023-01-17T18:29:24.004Z,16.55
2023-01-17T18:31:53.484Z,16.88
2023-01-17T18:34:27.242Z,14.60
2023-01-17T18:36:54.857Z,15.27
2023-01-17T18:39:24.822Z,16.27
2023-01-17T18:41:52.355Z,17.98
2023-01-17T18:44:22.745Z,17.73
2023-01-17T18:46:53.927Z,15.45
2023-01-17T18:49:21.279Z,15.57
2023-01-17T18:51:51.845Z,14.65
2023-01-17T18:54:20.002Z,17.27
2023-01-17T18:56:47.066Z,16.75
2023-01-17T18:59:16.104Z,16.05
2023-01-17T19:01:43.724Z,14.50
2023-01-17T19:04:13.541Z,13.82
2023-01-17T19:06:42.958Z,15.35
2023-01-17T19:09:12.429Z,16.27
2023-01-17T19:11:40.010Z,15.95
2023-01-17T19:14:07.692Z,15.52
2023-01-17T19:16:39.365Z,16.65
2023-01-17T19:19:13.012Z,17.38
2023-01-17T19:21:40.062Z,16.52
2023-01-17T19:24:08.445Z,15.55
2023-01-17T19:26:35.497Z,16.75
2023-01-17T19:29:06.884Z,15.88
2023-01-17T19:31:39.950Z,16.80
2023-01-17T19:34:06.817Z,13.73
2023-01-17T19:36:35.888Z,15.32
2023-01-17T19:39:06.696Z,18.83
2023-01-17T19:41:36.685Z,16.23
2023-01-17T19:44:09.149Z,15.98
2023-01-17T19:46:37.323Z,15.75
2023-01-17T19:49:06.754Z,17.42
2023-01-17T19:51:33.903Z,15.70
2023-01-17T19:54:01.793Z,17.65
2023-01-17T19:56:29.361Z,14.35
2023-01-17T19:59:01.801Z,17.33
2023-01-17T20:01:31.861Z,16.63
2023-01-17T20:04:00.439Z,17.52
2023-01-17T20:06:33.442Z,17.38
2023-01-17T20:09:00.362Z,16.58
2023-01-17T20:11:28.530Z,17.60
2023-01-17T20:13:57.784Z,17.27
2023-01-17T20:16:27.335Z,16.05
2023-01-17T20:18:54.392Z,16.98
2023-01-17T20:21:26.668Z,17.00
2023-01-17T20:23:55.123Z,16.83
2023-01-17T20:26:25.182Z,16.65
2023-01-17T20:28:52.421Z,16.65
2023-01-17T20:31:22.783Z,18.55
2023-01-17T20:33:51.175Z,16.30
2023-01-17T20:36:20.289Z,14.50
2023-01-17T20:38:48.627Z,15.52
2023-01-17T20:41:21.443Z,17.25
2023-01-17T20:43:54.060Z,15.98
2023-01-17T20:46:24.368Z,15.55
2023-01-17T20:48:53.648Z,15.68
2023-01-17T20:51:21.499Z,15.43
2023-01-17T20:53:53.651Z,15.07
2023-01-17T20:56:20.591Z,15.77
2023-01-17T20:58:47.630Z,16.02
2023-01-17T21:01:21.899Z,15.60
2023-01-17T21:03:51.731Z,15.10
2023-01-17T21:06:20.394Z,15.55
2023-01-17T21:08:48.011Z,14.95
2023-01-17T21:11:18.053Z,16.33
2023-01-17T21:13:45.293Z,15.50
2023-01-17T21:16:14.256Z,15.57
2023-01-17T21:18:41.155Z,17.02
2023-01-17T21:21:13.786Z,16.73
2023-01-17T21:23:42.027Z,16.75
2023-01-17T21:26:12.030Z,14.98
2023-01-17T21:28:40.717Z,16.13
2023-01-17T21:31:19.522Z,16.73
2023-01-17T21:34:07.004Z,17.30
2023-01-17T21:36:37.600Z,17.48
2023-01-17T21:39:12.042Z,16.65
2023-01-17T21:41:41.156Z,17.35
2023-01-17T21:44:15.156Z,17.80
2023-01-17T21:46:41.983Z,16.58
2023-01-17T21:49:13.288Z,16.30
2023-01-17T21:51:54.206Z,16.20
2023-01-17T21:54:43.078Z,16.35
2023-01-17T21:57:29.277Z,15.95
2023-01-17T21:59:56.312Z,14.20
2023-01-17T22:02:23.304Z,16.30
2023-01-17T22:04:50.227Z,16.98
2023-01-17T22:07:17.162Z,16.10
2023-01-17T22:09:43.997Z,17.17
2023-01-17T22:12:10.727Z,16.83
2023-01-17T22:14:38.334Z,16.27
2023-01-17T22:17:05.244Z,17.35
2023-01-17T22:19:32.022Z,16.90
2023-01-17T22:21:58.748Z,16.52
2023-01-17T22:24:25.771Z,16.00
2023-01-17T22:26:52.555Z,15.95
2023-01-17T22:29:19.454Z,15.85
2023-01-17T22:31:46.322Z,16.67
2023-01-17T22:34:13.963Z,16.80
2023-01-17T22:36:40.915Z,16.00
2023-01-17T22:39:09.275Z,15.45
2023-01-17T22:41:38.208Z,15.65
2023-01-17T22:44:08.578Z,15.65
2023-01-17T22:46:38.489Z,15.82
2023-01-17T22:49:08.907Z,15.35
2023-01-17T22:51:35.719Z,15.50
2023-01-17T22:54:02.585Z,16.85
2023-01-17T22:56:32.120Z,18.10
2023-01-17T22:59:00.841Z,16.67
2023-01-17T23:01:29.896Z,17.17
2023-01-17T23:04:01.280Z,17.38
2023-01-17T23:06:30.764Z,16.75
2023-01-17T23:09:00.003Z,16.13
2023-01-17T23:11:39.722Z,17.15
2023-01-17T23:14:08.153Z,16.20
2023-01-17T23:16:54.063Z,17.08
2023-01-17T23:19:24.267Z,16.63
2023-01-17T23:22:15.219Z,16.60
2023-01-17T23:24:50.971Z,17.48
2023-01-17T23:27:38.537Z,16.85
2023-01-17T23:30:11.150Z,18.17
2023-01-17T23:32:39.373Z,17.60
2023-01-17T23:35:07.016Z,18.40
2023-01-17T23:37:52.266Z,17.25
2023-01-17T23:40:19.385Z,19.35
2023-01-17T23:43:05.050Z,16.98
2023-01-17T23:45:34.985Z,18.13
2023-01-17T23:48:02.072Z,16.75
2023-01-17T23:50:28.823Z,18.27
2023-01-17T23:52:55.881Z,17.27
2023-01-17T23:55:23.177Z,18.80
2023-01-17T23:57:51.805Z,17.05
